Time;durP1;ratioP1;P1;durP2;ratioP2;P2;SDS_P1;SDS_P2;PMS_P1;PMS_P2;Temp;Humidity;BMP_temperature;BMP_pressure;BME280_temperature;BME280_humidity;BME280_pressure;Samples;Min_cycle;Max_cycle;Signal;HPM_P1;HPM_P2
2022/08/08 00:02:07;;;;;;;11.15;3.80;;;;;;;20.33;66.17;101494.05;1732277;82;27501;-54
2022/08/08 00:05:08;;;;;;;8.03;3.30;;;;;;;20.32;66.29;101500.02;1732498;82;25812;-53
2022/08/08 00:08:21;;;;;;;13.83;3.85;;;;;;;20.33;66.16;101497.63;1738768;81;25712;-55
2022/08/08 00:11:12;;;;;;;12.60;3.55;;;;;;;20.28;66.26;101499.20;1761675;81;26610;-54
2022/08/08 00:14:03;;;;;;;9.90;3.98;;;;;;;20.25;66.30;101508.61;1762380;81;25780;-53
2022/08/08 00:16:54;;;;;;;8.95;3.65;;;;;;;20.22;66.07;101501.30;1761183;81;27529;-54
2022/08/08 00:19:34;;;;;;;9.73;3.42;;;;;;;20.20;66.21;101494.67;1761463;81;25818;-54
2022/08/08 00:22:20;;;;;;;4.90;3.40;;;;;;;20.15;66.33;101501.17;1761501;81;25596;-53
2022/08/08 00:25:01;;;;;;;8.53;3.60;;;;;;;20.06;66.58;101500.41;1762344;81;25781;-54
2022/08/08 00:27:29;;;;;;;13.60;3.95;;;;;;;20.09;66.82;101503.28;1763383;80;25734;-54
2022/08/08 00:30:05;;;;;;;7.70;3.50;;;;;;;20.08;67.33;101501.05;1762853;80;28274;-54
2022/08/08 00:32:42;;;;;;;8.83;3.77;;;;;;;20.09;66.98;101501.38;1762951;80;25775;-54
2022/08/08 00:35:30;;;;;;;8.80;3.67;;;;;;;20.12;67.14;101501.03;1763705;80;25829;-53
2022/08/08 00:38:28;;;;;;;12.53;4.17;;;;;;;20.08;67.18;101499.68;1776122;80;26317;-53
2022/08/08 00:41:19;;;;;;;7.83;3.33;;;;;;;20.02;67.07;101500.41;1775897;80;25982;-54
2022/08/08 00:44:05;;;;;;;9.53;3.50;;;;;;;20.05;67.20;101497.83;1759486;80;27714;-55
2022/08/08 00:46:43;;;;;;;17.30;4.67;;;;;;;20.11;67.15;101494.39;1769059;80;25716;-55
2022/08/08 00:49:56;;;;;;;10.13;3.40;;;;;;;20.10;67.09;101492.16;1763315;81;25477;-55
2022/08/08 00:53:13;;;;;;;8.38;3.87;;;;;;;20.13;67.44;101493.67;1763465;81;26540;-55
2022/08/08 00:56:21;;;;;;;8.45;4.00;;;;;;;20.18;67.39;101501.66;1762551;81;25631;-55
2022/08/08 00:59:21;;;;;;;11.88;4.12;;;;;;;20.14;67.86;101496.74;1763427;81;27497;-55
2022/08/08 01:02:18;;;;;;;7.30;3.45;;;;;;;20.02;67.74;101504.51;1741994;81;25581;-55
2022/08/08 01:05:41;;;;;;;10.75;3.90;;;;;;;19.99;68.51;101498.91;1763120;80;25879;-53
2022/08/08 01:08:47;;;;;;;6.37;3.58;;;;;;;20.00;68.37;101502.47;1762881;80;25510;-55
2022/08/08 01:11:40;;;;;;;8.98;4.42;;;;;;;20.04;68.84;101504.34;1762480;81;25735;-54
2022/08/08 01:14:32;;;;;;;6.85;3.37;;;;;;;20.00;68.78;101505.20;1762742;80;27547;-55
2022/08/08 01:17:24;;;;;;;9.75;3.90;;;;;;;19.99;69.15;101492.61;1762992;81;25780;-54
2022/08/08 01:20:23;;;;;;;7.50;3.33;;;;;;;19.94;69.16;101496.38;1763063;81;25853;-54
2022/08/08 01:23:27;;;;;;;7.42;3.55;;;;;;;19.96;69.41;101491.59;1762862;81;25651;-54
2022/08/08 01:26:19;;;;;;;8.65;3.72;;;;;;;19.95;69.56;101489.36;1744804;82;25973;-55
2022/08/08 01:29:01;;;;;;;12.15;4.40;;;;;;;19.89;69.49;101489.25;1745490;82;27608;-54
2022/08/08 01:32:04;;;;;;;11.18;4.90;;;;;;;19.87;69.67;101483.95;1744839;82;25475;-55
2022/08/08 01:35:02;;;;;;;8.45;3.27;;;;;;;19.86;69.82;101480.39;1745135;82;25835;-54
2022/08/08 01:38:15;;;;;;;8.70;3.77;;;;;;;19.88;69.62;101484.82;1742326;82;25942;-54
2022/08/08 01:40:58;;;;;;;13.05;3.60;;;;;;;19.85;69.64;101480.58;1740333;82;26122;-54
2022/08/08 01:43:44;;;;;;;10.43;3.52;;;;;;;19.86;69.89;101478.16;1722711;82;28427;-53
2022/08/08 01:46:43;;;;;;;10.08;4.35;;;;;;;19.85;69.81;101478.68;1750153;81;25739;-53
2022/08/08 01:49:43;;;;;;;9.45;3.72;;;;;;;19.83;69.66;101481.23;1762832;81;25537;-53
2022/08/08 01:52:31;;;;;;;12.98;4.58;;;;;;;19.81;69.83;101485.48;1744228;81;25785;-54
2022/08/08 01:55:19;;;;;;;9.90;4.17;;;;;;;19.80;70.05;101482.95;1762535;81;25803;-54
2022/08/08 01:58:31;;;;;;;9.25;3.87;;;;;;;19.80;69.98;101500.20;1732282;81;27482;-55
2022/08/08 02:01:48;;;;;;;7.08;4.50;;;;;;;19.82;70.22;101494.55;1762414;81;25974;-54
2022/08/08 02:15:10;;;;;;;6.50;4.20;;;;;;;19.84;69.97;101491.97;1746631;79;27557;-53
2022/08/08 02:17:59;;;;;;;11.85;3.80;;;;;;;19.79;70.15;101488.94;1741483;82;27401;-55
2022/08/08 02:22:30;;;;;;;10.95;3.90;;;;;;;19.81;70.57;101497.77;1742232;82;25597;-54
2022/08/08 02:23:28;;;;;;;13.87;4.33;;;;;;;19.81;70.25;101495.57;1743282;80;25763;-54
2022/08/08 02:26:17;;;;;;;10.93;3.85;;;;;;;19.79;70.45;101493.03;1775897;80;25861;-55
2022/08/08 02:29:20;;;;;;;9.30;4.75;;;;;;;19.77;70.48;101488.75;1775913;80;27472;-55
2022/08/08 02:32:22;;;;;;;10.15;3.55;;;;;;;19.76;70.40;101489.28;1775745;80;25727;-53
2022/08/08 02:34:55;;;;;;;7.95;4.25;;;;;;;19.81;70.32;101492.31;1775585;80;25703;-54
2022/08/08 02:37:59;;;;;;;5.97;3.42;;;;;;;19.80;70.64;101492.00;1764540;79;25868;-53
2022/08/08 02:40:48;;;;;;;7.55;3.60;;;;;;;19.78;70.42;101491.82;1769398;81;25531;-55
2022/08/08 02:43:50;;;;;;;8.80;3.83;;;;;;;19.74;70.40;101487.77;1769246;81;27468;-54
2022/08/08 02:46:34;;;;;;;8.50;3.75;;;;;;;19.75;70.65;101490.31;1769290;79;25830;-55
2022/08/08 02:49:56;;;;;;;9.13;3.85;;;;;;;19.75;70.39;101494.41;1769285;81;25801;-55
2022/08/08 02:52:56;;;;;;;9.30;3.75;;;;;;;19.76;70.71;101494.75;1710143;83;25894;-55
2022/08/08 02:55:53;;;;;;;10.68;4.17;;;;;;;19.80;70.50;101500.20;1722857;83;26569;-55
2022/08/08 02:58:47;;;;;;;8.33;3.70;;;;;;;19.82;70.24;101502.73;1710046;83;27598;-55
2022/08/08 03:01:47;;;;;;;10.10;3.72;;;;;;;19.82;70.21;101502.20;1710201;83;25752;-54
2022/08/08 03:04:51;;;;;;;6.97;4.15;;;;;;;19.81;70.01;101503.76;1710019;83;25792;-55
2022/08/08 03:07:36;;;;;;;7.65;3.67;;;;;;;19.78;70.09;101510.93;1722718;82;25974;-54
2022/08/08 03:10:47;;;;;;;7.90;4.10;;;;;;;19.76;70.09;101523.94;1722260;83;26508;-54
2022/08/08 03:13:40;;;;;;;9.68;3.65;;;;;;;19.75;70.23;101518.14;1722023;82;28455;-54
2022/08/08 03:16:19;;;;;;;7.90;3.87;;;;;;;19.77;70.43;101522.38;1669516;84;25845;-56
2022/08/08 03:19:00;;;;;;;4.95;3.25;;;;;;;19.79;70.32;101523.56;1689850;84;25743;-55
2022/08/08 03:21:26;;;;;;;8.70;4.55;;;;;;;19.82;70.21;101529.50;1690357;84;25808;-55
2022/08/08 03:23:53;;;;;;;8.38;4.25;;;;;;;19.84;70.24;101531.55;1752351;81;25775;-55
2022/08/08 03:26:26;;;;;;;6.53;3.90;;;;;;;19.89;70.04;101526.95;1790491;80;27418;-54
2022/08/08 03:29:01;;;;;;;8.88;3.30;;;;;;;19.92;70.04;101528.47;1762771;81;25769;-54
2022/08/08 03:34:16;;;;;;;13.08;3.60;;;;;;;20.01;69.84;101538.31;1790231;80;25745;-55
2022/08/08 03:36:43;;;;;;;13.28;4.03;;;;;;;19.94;69.64;101531.87;1762015;81;25881;-55
2022/08/08 03:39:13;;;;;;;8.95;3.85;;;;;;;19.92;69.77;101536.66;1793168;79;27483;-55
2022/08/08 03:41:41;;;;;;;7.35;3.60;;;;;;;19.94;70.01;101532.73;1793181;79;25747;-54
2022/08/08 03:44:08;;;;;;;12.25;3.50;;;;;;;19.96;69.85;101538.84;1758766;80;25755;-55
2022/08/08 03:46:47;;;;;;;18.82;4.15;;;;;;;20.03;69.88;101538.15;1768063;80;26587;-53
2022/08/08 03:49:30;;;;;;;10.85;3.50;;;;;;;20.09;69.84;101542.34;1768240;81;25929;-54
2022/08/08 03:51:56;;;;;;;13.48;3.72;;;;;;;20.07;69.96;101543.57;1766729;81;27653;-52
2022/08/08 03:54:26;;;;;;;14.60;3.58;;;;;;;20.04;70.36;101543.42;1767922;81;25674;-55
2022/08/08 03:56:53;;;;;;;10.08;3.87;;;;;;;20.06;69.95;101546.83;1767954;81;25670;-55
2022/08/08 03:59:30;;;;;;;7.25;3.90;;;;;;;20.09;69.81;101549.70;1767937;81;27881;-56
2022/08/08 04:01:58;;;;;;;15.63;3.62;;;;;;;20.06;69.84;101544.59;1767892;81;25814;-55
2022/08/08 04:04:25;;;;;;;9.30;3.72;;;;;;;19.97;70.18;101551.48;1768094;81;27616;-56
2022/08/08 04:06:57;;;;;;;6.53;3.35;;;;;;;19.90;70.41;101547.77;1767831;81;26027;-56
2022/08/08 04:09:25;;;;;;;10.58;4.50;;;;;;;19.84;70.79;101558.02;1769669;79;25813;-56
2022/08/08 04:11:53;;;;;;;22.85;10.00;;;;;;;19.87;71.03;101539.92;1770024;81;26034;-56
2022/08/08 04:14:21;;;;;;;13.38;4.87;;;;;;;19.94;71.11;101552.35;1769070;80;25817;-55
2022/08/08 04:16:49;;;;;;;11.33;4.53;;;;;;;19.95;70.82;101551.33;1767846;81;27478;-55
2022/08/08 04:19:16;;;;;;;15.98;3.67;;;;;;;19.95;70.92;101553.53;1767729;81;25742;-56
2022/08/08 04:21:43;;;;;;;11.00;3.65;;;;;;;19.94;70.92;101564.64;1767994;81;26544;-55
2022/08/08 04:24:11;;;;;;;8.35;3.50;;;;;;;19.93;70.72;101559.70;1775567;80;25769;-55
2022/08/08 04:26:39;;;;;;;8.25;3.52;;;;;;;20.00;70.69;101552.98;1783636;80;25711;-54
2022/08/08 04:29:06;;;;;;;7.15;3.35;;;;;;;20.02;70.59;101553.66;1783486;80;28374;-55
2022/08/08 04:31:33;;;;;;;11.25;3.65;;;;;;;20.08;70.47;101558.40;1783467;80;25466;-55
2022/08/08 04:34:00;;;;;;;8.00;3.35;;;;;;;20.10;70.36;101552.25;1783433;80;25715;-55
2022/08/08 04:36:28;;;;;;;8.88;3.40;;;;;;;20.20;70.61;101556.63;1783371;80;25833;-54
2022/08/08 04:38:55;;;;;;;10.48;3.72;;;;;;;20.30;70.31;101559.98;1781052;80;25722;-55
2022/08/08 04:41:22;;;;;;;8.68;3.50;;;;;;;20.39;70.19;101564.89;1781048;80;29610;-55
2022/08/08 04:43:49;;;;;;;5.58;3.80;;;;;;;20.52;70.06;101567.00;1780996;80;25694;-55
2022/08/08 04:46:18;;;;;;;7.37;4.70;;;;;;;20.56;69.68;101569.19;1774038;80;25707;-54
2022/08/08 04:48:44;;;;;;;13.98;6.00;;;;;;;20.55;69.39;101570.22;1766452;81;25767;-54
2022/08/08 04:51:12;;;;;;;35.40;24.80;;;;;;;20.58;69.26;101568.47;1766127;81;25490;-56
2022/08/08 04:53:39;;;;;;;8.10;3.90;;;;;;;20.61;69.26;101568.64;1766366;81;27480;-55
2022/08/08 04:56:06;;;;;;;12.70;4.50;;;;;;;20.62;69.00;101574.41;1766016;81;25920;-55
2022/08/08 04:58:34;;;;;;;5.58;3.62;;;;;;;20.63;68.86;101566.05;1766354;81;25769;-56
2022/08/08 05:01:02;;;;;;;10.03;3.22;;;;;;;20.63;68.88;101560.58;1766093;81;26842;-54
2022/08/08 05:03:29;;;;;;;6.65;3.50;;;;;;;20.61;68.88;101572.74;1766352;81;25730;-53
2022/08/08 05:05:57;;;;;;;9.88;3.55;;;;;;;20.62;68.99;101565.72;1766070;81;28281;-55
2022/08/08 05:08:25;;;;;;;8.48;3.60;;;;;;;20.68;68.91;101561.41;1773890;80;25749;-55
2022/08/08 05:10:55;;;;;;;10.30;3.90;;;;;;;20.77;68.81;101566.30;1781059;80;25766;-53
2022/08/08 05:13:22;;;;;;;5.80;3.40;;;;;;;20.82;68.86;101563.01;1781069;79;26717;-55
2022/08/08 05:15:50;;;;;;;8.78;3.15;;;;;;;20.88;68.53;101563.66;1781234;79;25711;-55
2022/08/08 05:18:18;;;;;;;4.75;3.08;;;;;;;20.93;68.43;101565.30;1781029;79;27520;-55
2022/08/08 05:20:45;;;;;;;7.53;3.80;;;;;;;21.01;68.31;101563.85;1781016;80;25806;-55
2022/08/08 05:23:12;;;;;;;11.45;3.50;;;;;;;21.07;68.02;101572.67;1780241;80;25717;-55
2022/08/08 05:25:39;;;;;;;14.78;3.77;;;;;;;21.17;67.88;101561.98;1766761;81;25871;-55
2022/08/08 05:28:06;;;;;;;5.95;3.92;;;;;;;21.26;67.83;101560.35;1767199;81;25798;-54
2022/08/08 05:30:32;;;;;;;7.80;3.70;;;;;;;21.37;67.26;101558.19;1766913;81;27456;-55
2022/08/08 05:32:59;;;;;;;6.85;3.25;;;;;;;21.42;66.81;101552.48;1766786;81;25782;-56
2022/08/08 05:35:28;;;;;;;4.87;3.55;;;;;;;21.42;66.20;101563.43;1766729;81;25794;-55
2022/08/08 05:38:02;;;;;;;8.28;3.45;;;;;;;21.40;66.26;101560.53;1766837;81;25902;-56
2022/08/08 05:40:43;;;;;;;;;;;;;;;21.37;66.14;101561.77;1769424;81;26507;-58
2022/08/08 05:43:15;;;;;;;8.98;3.87;;;;;;;21.34;66.33;101570.87;1766764;81;27661;-55
2022/08/08 05:45:43;;;;;;;3.50;2.90;;;;;;;21.39;66.20;101567.03;1766226;80;25438;-55
2022/08/08 05:48:11;;;;;;;8.93;3.55;;;;;;;21.43;65.80;101564.27;1760747;79;25758;-55
2022/08/08 05:50:39;;;;;;;6.83;3.22;;;;;;;21.43;65.95;101569.73;1750070;82;25854;-55
2022/08/08 05:53:06;;;;;;;9.30;5.83;;;;;;;21.43;65.94;101573.84;1750309;81;25735;-54
2022/08/08 05:55:34;;;;;;;9.00;3.30;;;;;;;21.48;66.03;101574.11;1750061;82;27570;-55
2022/08/08 05:58:03;;;;;;;7.22;3.65;;;;;;;21.55;65.83;101571.47;1750004;82;25951;-55
2022/08/08 06:00:32;;;;;;;6.15;3.20;;;;;;;21.63;65.74;101574.67;1750104;81;25827;-54
2022/08/08 06:03:10;;;;;;;5.40;3.10;;;;;;;21.69;65.15;101576.64;1750080;82;25758;-56
2022/08/08 06:05:57;;;;;;;7.40;4.08;;;;;;;21.72;65.24;101577.64;1746463;82;25719;-55
2022/08/08 06:08:38;;;;;;;8.23;3.65;;;;;;;21.72;65.02;101579.02;1763237;79;27500;-54
2022/08/08 06:11:07;;;;;;;10.88;4.10;;;;;;;21.76;64.78;101577.57;1780780;80;25802;-55
2022/08/08 06:13:35;;;;;;;9.10;3.87;;;;;;;21.74;64.88;101575.53;1778819;79;25740;-56
2022/08/08 06:16:02;;;;;;;8.18;4.70;;;;;;;21.83;64.74;101581.23;1770454;81;25676;-54
2022/08/08 06:18:40;;;;;;;10.40;5.28;;;;;;;21.89;64.50;101580.49;1767707;79;25743;-54
2022/08/08 06:21:10;;;;;;;7.25;4.83;;;;;;;21.94;64.44;101579.92;1770423;81;28326;-55
2022/08/08 06:23:38;;;;;;;6.35;3.70;;;;;;;21.91;64.07;101576.18;1769364;81;25692;-55
2022/08/08 06:26:10;;;;;;;7.95;3.87;;;;;;;21.89;64.18;101580.49;1770368;79;25769;-54
2022/08/08 06:29:00;;;;;;;6.65;4.80;;;;;;;21.94;64.15;101579.05;1780805;80;25908;-55
2022/08/08 06:31:34;;;;;;;8.70;4.30;;;;;;;21.98;64.08;101576.27;1781090;80;25821;-56
2022/08/08 06:34:05;;;;;;;4.58;3.45;;;;;;;22.10;63.82;101569.77;1780859;80;27454;-54
2022/08/08 06:36:39;;;;;;;11.03;3.33;;;;;;;22.16;63.75;101572.59;1780772;80;25785;-55
2022/08/08 06:39:17;;;;;;;8.35;3.40;;;;;;;22.26;63.56;101573.63;1783700;79;25801;-55
2022/08/08 06:41:55;;;;;;;5.87;3.33;;;;;;;22.36;63.31;101581.55;1784635;80;26546;-55
2022/08/08 06:44:26;;;;;;;7.25;4.20;;;;;;;22.17;62.62;101589.36;1783981;80;26099;-55
2022/08/08 06:46:57;;;;;;;9.65;3.90;;;;;;;22.11;63.18;101586.53;1773863;80;28265;-55
2022/08/08 06:49:27;;;;;;;9.23;4.15;;;;;;;22.19;62.94;101586.41;1771146;79;25459;-54
2022/08/08 06:51:54;;;;;;;7.30;3.75;;;;;;;22.20;62.92;101590.86;1771512;79;25753;-55
2022/08/08 06:54:24;;;;;;;5.75;3.65;;;;;;;22.22;62.83;101586.03;1809419;79;25822;-54
2022/08/08 06:56:53;;;;;;;9.45;3.90;;;;;;;22.23;62.87;101590.98;1786931;79;25795;-54
2022/08/08 06:59:21;;;;;;;9.75;3.83;;;;;;;22.23;62.66;101589.61;1809558;79;27446;-55
2022/08/08 07:02:02;;;;;;;13.08;3.77;;;;;;;22.20;62.77;101591.69;1809349;79;25460;-54
2022/08/08 07:04:58;;;;;;;8.23;4.22;;;;;;;22.32;62.84;101586.55;1809826;77;25765;-56
2022/08/08 07:08:02;;;;;;;7.90;4.50;;;;;;;22.43;62.68;101592.09;1809820;78;26567;-55
2022/08/08 07:10:43;;;;;;;12.05;4.92;;;;;;;22.55;62.36;101592.41;1737962;82;25715;-54
2022/08/08 07:13:17;;;;;;;7.80;4.05;;;;;;;22.54;61.99;101588.50;1748300;80;27479;-54
2022/08/08 07:16:19;;;;;;;5.67;3.47;;;;;;;22.61;62.07;101587.50;1778020;79;25715;-54
2022/08/08 07:19:10;;;;;;;8.35;4.22;;;;;;;22.74;62.15;101589.52;1773173;80;25776;-56
2022/08/08 07:21:58;;;;;;;8.83;3.80;;;;;;;22.81;61.27;101595.06;1770215;80;26441;-55
2022/08/08 07:24:32;;;;;;;10.70;4.33;;;;;;;22.76;61.21;101597.03;1778170;80;53145;-54
2022/08/08 07:27:05;;;;;;;12.63;4.40;;;;;;;22.76;60.91;101605.80;1778112;80;27485;-55
2022/08/08 07:29:36;;;;;;;8.78;4.03;;;;;;;22.68;61.13;101590.31;1778136;80;25798;-56
2022/08/08 07:32:07;;;;;;;14.78;3.90;;;;;;;22.69;61.04;101598.87;1787634;80;25802;-55
2022/08/08 07:34:35;;;;;;;8.53;4.17;;;;;;;22.72;61.26;101594.38;1744616;81;26374;-55
2022/08/08 07:37:07;;;;;;;10.32;4.58;;;;;;;22.80;61.36;101598.34;1770350;81;25792;-55
2022/08/08 07:39:35;;;;;;;12.28;4.20;;;;;;;22.94;61.12;101603.93;1749771;80;28305;-55
2022/08/08 07:42:05;;;;;;;5.17;3.60;;;;;;;23.06;61.19;101600.11;1785975;80;25859;-55
2022/08/08 07:44:34;;;;;;;9.05;4.37;;;;;;;23.18;60.57;101605.89;1761049;80;25747;-55
2022/08/08 07:47:01;;;;;;;6.80;4.03;;;;;;;23.18;60.32;101601.30;1785482;80;25891;-53
2022/08/08 07:49:29;;;;;;;12.65;4.28;;;;;;;23.21;60.05;101602.28;1785458;80;25754;-55
2022/08/08 07:51:58;;;;;;;7.37;3.77;;;;;;;23.23;59.83;101597.96;1780402;80;27542;-55
2022/08/08 07:54:49;;;;;;;7.90;4.28;;;;;;;23.23;60.21;101599.33;1779295;80;25796;-56
2022/08/08 07:57:28;;;;;;;6.35;4.08;;;;;;;23.25;60.10;101609.59;1778969;80;25660;-55
2022/08/08 08:00:10;;;;;;;9.28;4.17;;;;;;;23.25;60.14;101607.69;1786613;79;26107;-55
2022/08/08 08:03:10;;;;;;;13.38;4.00;;;;;;;23.28;59.91;101607.30;1786234;80;27315;-55
2022/08/08 08:05:43;;;;;;;9.70;4.85;;;;;;;23.33;59.82;101605.31;1787161;80;27532;-55
2022/08/08 08:08:20;;;;;;;9.63;4.12;;;;;;;23.41;59.00;101599.66;1776269;80;25810;-56
2022/08/08 08:10:56;;;;;;;6.90;4.70;;;;;;;23.35;59.39;101606.48;1760011;80;25689;-56
2022/08/08 08:13:45;;;;;;;7.37;4.58;;;;;;;23.44;59.56;101610.22;1784150;80;26514;-54
2022/08/08 08:16:26;;;;;;;6.17;4.20;;;;;;;23.45;59.47;101607.80;1785287;80;25706;-56
2022/08/08 08:19:00;;;;;;;9.78;3.90;;;;;;;23.46;59.06;101601.80;1785275;80;27493;-55
2022/08/08 08:21:45;;;;;;;5.40;4.00;;;;;;;23.42;59.30;101604.62;1781573;78;25738;-55
2022/08/08 08:24:14;;;;;;;7.10;4.10;;;;;;;23.49;59.37;101606.87;1779811;80;25765;-55
2022/08/08 08:26:41;;;;;;;6.37;4.12;;;;;;;23.52;59.12;101613.88;1769779;80;25792;-55
2022/08/08 08:29:10;;;;;;;5.20;4.10;;;;;;;23.57;58.96;101604.00;1772037;80;25996;-55
2022/08/08 08:31:38;;;;;;;7.30;4.15;;;;;;;23.60;59.04;101598.08;1763088;81;28513;-56
2022/08/08 08:34:06;;;;;;;7.42;4.33;;;;;;;23.67;58.86;101601.38;1762690;80;25730;-56
2022/08/08 08:36:34;;;;;;;4.85;3.55;;;;;;;23.69;58.80;101594.65;1762069;80;25765;-56
2022/08/08 08:39:02;;;;;;;7.17;4.37;;;;;;;23.76;58.55;101599.64;1762588;80;25809;-56
2022/08/08 08:41:35;;;;;;;8.20;3.92;;;;;;;23.88;58.40;101603.19;1765026;80;25711;-55
2022/08/08 08:44:03;;;;;;;6.33;4.20;;;;;;;24.02;58.13;101607.70;1775412;80;27466;-55
2022/08/08 08:46:31;;;;;;;10.85;4.00;;;;;;;24.17;57.82;101608.06;1770624;78;25732;-55
2022/08/08 08:48:59;;;;;;;5.72;3.58;;;;;;;24.29;57.63;101605.58;1767337;81;25830;-56
2022/08/08 08:51:29;;;;;;;7.00;5.20;;;;;;;24.41;57.31;101606.65;1767626;81;25752;-56
2022/08/08 08:54:01;;;;;;;7.42;3.70;;;;;;;24.57;56.95;101606.79;1744732;82;25488;-55
2022/08/08 08:56:31;;;;;;;9.53;4.30;;;;;;;24.72;56.34;101603.02;1744582;82;27523;-57
2022/08/08 08:59:02;;;;;;;7.87;4.12;;;;;;;24.79;55.72;101607.48;1767994;80;25691;-56
2022/08/08 09:01:36;;;;;;;6.45;4.08;;;;;;;24.92;55.31;101599.75;1775433;79;25850;-56
2022/08/08 09:04:14;;;;;;;5.62;4.78;;;;;;;24.99;55.52;101600.59;1775540;80;25824;-56
2022/08/08 09:06:44;;;;;;;8.13;4.67;;;;;;;25.15;55.25;101599.83;1775765;80;25802;-56
2022/08/08 09:09:22;;;;;;;7.65;4.70;;;;;;;25.20;54.39;101595.92;1721826;82;27442;-55
2022/08/08 09:11:53;;;;;;;6.40;4.05;;;;;;;25.22;54.50;101597.08;1742954;82;25861;-56
2022/08/08 09:14:24;;;;;;;9.08;4.00;;;;;;;25.35;54.27;101593.45;1759787;80;25799;-56
2022/08/08 09:16:52;;;;;;;9.80;4.00;;;;;;;25.42;53.73;101589.66;1775563;80;25867;-56
2022/08/08 09:19:20;;;;;;;7.25;3.60;;;;;;;25.51;53.58;101590.25;1764894;80;25703;-56
2022/08/08 09:21:50;;;;;;;6.28;4.00;;;;;;;25.70;53.32;101587.14;1766256;80;27491;-56
2022/08/08 09:24:18;;;;;;;5.65;3.92;;;;;;;25.87;53.41;101581.96;1769548;80;25825;-56
2022/08/08 09:27:07;;;;;;;8.65;3.52;;;;;;;26.11;52.82;101575.95;1744816;80;25800;-54
2022/08/08 09:30:02;;;;;;;6.72;3.85;;;;;;;26.31;51.71;101582.75;1775079;80;26437;-55
2022/08/08 09:32:46;;;;;;;8.28;3.10;;;;;;;26.53;50.91;101574.95;1774748;80;25801;-55
2022/08/08 09:35:17;;;;;;;4.20;3.47;;;;;;;26.75;51.04;101574.03;1775759;79;32484;-55
2022/08/08 09:37:52;;;;;;;6.78;3.85;;;;;;;26.80;50.24;101574.77;1775454;80;25850;-56
2022/08/08 09:40:24;;;;;;;3.45;3.15;;;;;;;27.03;50.05;101570.83;1774543;80;25824;-55
2022/08/08 09:43:30;;;;;;;5.50;3.72;;;;;;;27.33;49.46;101565.10;1775628;80;25839;-55
2022/08/08 09:46:04;;;;;;;5.12;3.40;;;;;;;27.48;49.43;101570.29;1774730;79;25730;-56
2022/08/08 09:48:34;;;;;;;5.22;3.80;;;;;;;27.71;48.71;101568.73;1775557;80;28325;-56
2022/08/08 09:51:03;;;;;;;6.28;3.52;;;;;;;27.91;46.93;101562.96;1775337;79;25705;-56
2022/08/08 09:53:38;;;;;;;7.30;3.85;;;;;;;28.19;47.68;101560.98;1775547;80;25510;-56
2022/08/08 09:56:11;;;;;;;5.83;3.60;;;;;;;28.60;47.17;101563.15;1760717;81;25962;-55
2022/08/08 09:58:44;;;;;;;4.80;3.62;;;;;;;29.41;45.59;101557.05;1761186;81;25739;-56
2022/08/08 10:01:12;;;;;;;7.78;3.40;;;;;;;29.71;43.95;101553.24;1753735;79;27455;-56
2022/08/08 10:03:41;;;;;;;5.22;3.37;;;;;;;29.67;43.95;101555.67;1743138;82;25742;-57
2022/08/08 10:06:20;;;;;;;6.92;3.80;;;;;;;30.13;43.33;101546.03;1761141;80;25787;-56
2022/08/08 10:08:49;;;;;;;5.58;2.62;;;;;;;30.26;42.65;101547.09;1769089;80;25797;-56
2022/08/08 10:11:22;;;;;;;7.08;2.95;;;;;;;30.96;41.60;101534.38;1775875;79;25839;-56
2022/08/08 10:13:58;;;;;;;5.60;3.12;;;;;;;31.66;40.10;101536.72;1770696;80;27462;-56
2022/08/08 10:17:02;;;;;;;4.78;2.77;;;;;;;32.10;39.45;101535.80;1761998;81;26497;-56
2022/08/08 10:19:39;;;;;;;3.67;2.77;;;;;;;32.68;38.66;101539.41;1760193;81;25758;-56
2022/08/08 10:22:08;;;;;;;5.12;3.22;;;;;;;33.30;38.07;101539.27;1762012;81;25788;-56
2022/08/08 10:24:39;;;;;;;7.33;3.27;;;;;;;33.82;36.97;101539.48;1771105;80;25872;-56
2022/08/08 10:27:06;;;;;;;6.67;2.92;;;;;;;33.55;35.96;101534.94;1773281;80;27486;-56
2022/08/08 10:29:42;;;;;;;5.53;2.98;;;;;;;33.88;36.21;101530.03;1775404;79;25763;-56
2022/08/08 10:35:15;;;;;;;9.38;2.65;;;;;;;34.42;34.88;101522.30;1768712;80;25860;-56
2022/08/08 10:38:01;;;;;;;6.87;2.77;;;;;;;34.92;33.06;101516.38;1772849;80;25746;-56
2022/08/08 10:40:30;;;;;;;7.05;2.58;;;;;;;35.06;32.63;101513.81;1789934;80;27621;-56
2022/08/08 10:43:01;;;;;;;6.47;3.10;;;;;;;35.06;32.76;101511.59;1792096;80;25999;-57
2022/08/08 10:45:29;;;;;;;2.98;2.50;;;;;;;35.21;33.31;101507.34;1791550;80;25726;-56
2022/08/08 10:47:59;;;;;;;3.87;2.47;;;;;;;35.54;33.08;101499.41;1790677;80;26411;-56
2022/08/08 10:50:35;;;;;;;7.53;2.33;;;;;;;35.90;32.08;101497.50;1792457;80;25513;-56
2022/08/08 10:53:08;;;;;;;2.87;2.65;;;;;;;36.04;31.55;101497.14;1792455;80;28250;-56
2022/08/08 10:55:36;;;;;;;9.88;2.72;;;;;;;36.25;31.74;101495.00;1792275;80;25768;-57
2022/08/08 10:58:08;;;;;;;3.95;2.40;;;;;;;36.57;31.45;101493.63;1787673;80;25723;-57
2022/08/08 11:00:42;;;;;;;4.37;2.37;;;;;;;36.55;30.91;101487.48;1766547;80;25722;-57
2022/08/08 11:03:17;;;;;;;9.63;2.37;;;;;;;36.61;30.52;101484.06;1786001;79;25791;-56
2022/08/08 11:05:50;;;;;;;5.05;2.50;;;;;;;36.71;30.92;101485.91;1771186;80;27506;-57
2022/08/08 11:08:30;;;;;;;3.77;2.30;;;;;;;36.77;29.91;101482.77;1772744;80;25738;-56
2022/08/08 11:11:04;;;;;;;3.62;2.42;;;;;;;36.66;30.14;101475.59;1786088;80;25513;-57
2022/08/08 11:13:45;;;;;;;3.92;2.75;;;;;;;36.83;29.45;101461.67;1775913;80;25775;-57
2022/08/08 11:16:26;;;;;;;5.17;2.30;;;;;;;36.72;30.29;101459.56;1777678;80;25537;-56
2022/08/08 11:18:55;;;;;;;7.25;2.37;;;;;;;36.88;29.96;101458.24;1777754;80;27590;-57
2022/08/08 11:21:22;;;;;;;4.40;2.25;;;;;;;37.11;29.72;101452.38;1751427;80;25797;-57
2022/08/08 11:23:52;;;;;;;5.00;2.60;;;;;;;37.35;29.85;101456.28;1777524;79;25543;-56
2022/08/08 11:26:19;;;;;;;5.78;2.72;;;;;;;37.62;28.29;101445.80;1777603;80;25790;-57
2022/08/08 11:28:48;;;;;;;4.37;2.20;;;;;;;37.46;29.62;101444.36;1762364;80;25791;-56
2022/08/08 11:31:16;;;;;;;3.40;2.30;;;;;;;37.82;28.59;101442.41;1761591;81;27620;-56
2022/08/08 11:33:48;;;;;;;5.83;2.45;;;;;;;37.93;28.35;101438.88;1789324;80;25714;-56
2022/08/08 11:36:15;;;;;;;4.83;2.55;;;;;;;37.71;28.18;101441.75;1788464;78;25813;-56
2022/08/08 11:38:45;;;;;;;5.78;2.37;;;;;;;37.78;28.83;101441.37;1792287;80;26329;-56
2022/08/08 11:41:14;;;;;;;3.17;2.12;;;;;;;37.77;28.29;101433.50;1788533;80;25742;-56
2022/08/08 11:43:44;;;;;;;9.70;2.20;;;;;;;38.04;28.68;101432.81;1761970;80;27117;-55
2022/08/08 11:46:12;;;;;;;3.98;2.65;;;;;;;38.51;27.40;101426.34;1756540;80;26130;-55
2022/08/08 11:48:40;;;;;;;3.42;1.92;;;;;;;38.53;27.99;101434.48;1770585;81;25769;-57
2022/08/08 11:51:09;;;;;;;3.72;2.52;;;;;;;38.87;27.51;101429.87;1770761;81;25846;-56
2022/08/08 11:53:37;;;;;;;7.83;2.70;;;;;;;39.25;26.85;101421.78;1770924;81;25763;-56
2022/08/08 11:56:04;;;;;;;2.30;1.92;;;;;;;39.52;26.02;101422.27;1770547;79;28503;-56
2022/08/08 11:58:33;;;;;;;8.78;2.22;;;;;;;39.10;26.76;101415.90;1770820;81;25747;-56
2022/08/08 12:01:04;;;;;;;4.65;1.95;;;;;;;39.33;27.01;101408.93;1785046;79;25776;-56
2022/08/08 12:03:32;;;;;;;4.50;2.17;;;;;;;39.86;26.81;101411.03;1803790;79;25939;-56
2022/08/08 12:06:11;;;;;;;63.70;4.50;;;;;;;40.39;26.32;101409.94;1803109;79;25889;-56
2022/08/08 12:08:40;;;;;;;4.42;2.25;;;;;;;40.77;24.75;101405.81;1789069;79;27538;-56
2022/08/08 12:11:14;;;;;;;7.50;2.20;;;;;;;40.70;25.04;101411.11;1780953;80;26058;-56
2022/08/08 12:13:42;;;;;;;4.62;2.12;;;;;;;40.73;24.71;101406.20;1777935;79;25804;-57
2022/08/08 12:16:14;;;;;;;3.58;2.30;;;;;;;40.72;25.49;101405.95;1767201;81;26618;-55
2022/08/08 12:18:53;;;;;;;2.90;2.30;;;;;;;41.16;24.47;101401.25;1767912;81;25857;-56
2022/08/08 12:21:32;;;;;;;4.42;2.30;;;;;;;41.44;23.71;101395.28;1775974;79;27524;-56
2022/08/08 12:24:14;;;;;;;7.53;2.22;;;;;;;41.19;24.11;101392.73;1794114;79;25833;-57
2022/08/08 12:26:51;;;;;;;5.90;2.35;;;;;;;41.04;24.44;101392.63;1780340;80;25461;-56
2022/08/08 12:29:32;;;;;;;5.78;2.17;;;;;;;41.32;24.28;101391.72;1781318;80;25693;-56